Time;durP1;ratioP1;P1;durP2;ratioP2;P2;SDS_P1;SDS_P2;PMS_P1;PMS_P2;Temp;Humidity;BMP_temperature;BMP_pressure;BME280_temperature;BME280_humidity;BME280_pressure;Samples;Min_cycle;Max_cycle;Signal;HPM_P1;HPM_P2
2022/05/22 00:00:21;;;;;;;7.03;2.40;;;9.60;99.90;;;;;;5100939;27;20047;-67
2022/05/22 00:02:46;;;;;;;11.48;2.45;;;9.60;99.90;;;;;;5125161;27;20047;-65
2022/05/22 00:05:16;;;;;;;6.93;2.55;;;9.60;99.90;;;;;;5111895;27;20050;-61
2022/05/22 00:07:42;;;;;;;;;;;9.50;99.90;;;;;;5128386;27;20050;-66
2022/05/22 00:10:08;;;;;;;9.90;2.95;;;9.50;99.90;;;;;;5111417;27;19922;-65
2022/05/22 00:12:34;;;;;;;10.20;2.60;;;9.50;99.90;;;;;;5128983;27;20485;-64
2022/05/22 00:15:00;;;;;;;10.32;2.78;;;9.40;99.90;;;;;;5128647;27;20042;-65
2022/05/22 00:17:26;;;;;;;14.93;2.92;;;9.40;99.90;;;;;;5111898;27;20058;-64
2022/05/22 00:19:52;;;;;;;13.73;3.10;;;9.40;99.90;;;;;;5110298;27;20476;-67
2022/05/22 00:22:18;;;;;;;11.98;2.47;;;9.40;99.90;;;;;;5127187;27;20066;-69
2022/05/22 00:24:43;;;;;;;12.50;2.65;;;9.30;99.90;;;;;;5128741;27;20049;-65
2022/05/22 00:27:09;;;;;;;8.70;2.65;;;9.30;99.90;;;;;;5130255;27;20061;-66
2022/05/22 00:29:39;;;;;;;8.60;2.45;;;9.30;99.90;;;;;;5146168;27;20065;-68
2022/05/22 00:32:06;;;;;;;16.67;3.17;;;9.30;99.90;;;;;;5119891;27;20047;-69
2022/05/22 00:34:32;;;;;;;9.77;2.58;;;9.20;99.90;;;;;;5128405;27;20519;-61
2022/05/22 00:36:58;;;;;;;11.35;2.58;;;9.20;99.90;;;;;;5110061;27;20046;-71
2022/05/22 00:39:26;;;;;;;17.45;3.83;;;9.10;99.90;;;;;;5112323;27;20095;-69
2022/05/22 00:41:55;;;;;;;10.48;2.60;;;9.10;99.90;;;;;;5103860;28;20047;-60
2022/05/22 00:44:21;;;;;;;15.43;2.53;;;9.10;99.90;;;;;;5092684;27;20039;-61
2022/05/22 00:46:49;;;;;;;14.80;2.53;;;9.10;99.90;;;;;;5107955;28;20061;-60
2022/05/22 00:49:29;;;;;;;6.65;2.20;;;9.10;99.90;;;;;;5090688;27;20047;-68
2022/05/22 00:52:00;;;;;;;13.50;3.10;;;9.00;99.90;;;;;;5108758;28;20047;-61
2022/05/22 00:54:36;;;;;;;5.18;2.45;;;8.90;99.90;;;;;;5106137;28;20512;-70
2022/05/22 00:57:09;;;;;;;11.65;2.55;;;8.90;99.90;;;;;;5109324;28;20156;-70
2022/05/22 00:59:41;;;;;;;9.18;2.70;;;8.90;99.90;;;;;;5123313;27;20051;-63
2022/05/22 01:02:07;;;;;;;9.70;3.45;;;9.00;99.90;;;;;;5103864;27;20495;-65
2022/05/22 01:04:36;;;;;;;9.93;2.53;;;8.90;99.90;;;;;;5127934;27;20496;-60
2022/05/22 01:07:05;;;;;;;9.20;2.72;;;8.90;99.90;;;;;;5112115;27;20874;-64
2022/05/22 01:09:31;;;;;;;10.50;2.92;;;8.80;99.90;;;;;;5112420;27;20042;-65
2022/05/22 01:12:02;;;;;;;10.93;2.80;;;8.80;99.90;;;;;;5113283;28;20047;-65
2022/05/22 01:14:30;;;;;;;11.25;3.00;;;8.80;99.90;;;;;;5091227;28;20393;-64
2022/05/22 01:17:09;;;;;;;9.35;2.58;;;8.80;99.90;;;;;;5105799;28;20687;-62
2022/05/22 01:19:35;;;;;;;6.13;2.83;;;8.80;99.90;;;;;;5108708;28;20333;-68
2022/05/22 01:22:05;;;;;;;8.43;2.50;;;8.70;99.90;;;;;;5121012;27;20461;-60
2022/05/22 01:24:31;;;;;;;12.07;2.88;;;8.70;99.90;;;;;;5126585;27;20045;-64
2022/05/22 01:27:02;;;;;;;13.85;2.85;;;8.70;99.90;;;;;;5128845;27;20043;-60
2022/05/22 01:29:28;;;;;;;9.93;2.72;;;8.70;99.90;;;;;;5109611;27;20492;-65
2022/05/22 01:31:53;;;;;;;10.98;2.92;;;8.60;99.90;;;;;;5122118;28;20051;-63
2022/05/22 01:34:19;;;;;;;9.65;2.67;;;8.60;99.90;;;;;;5090243;28;20117;-64
2022/05/22 01:36:45;;;;;;;9.45;3.08;;;8.60;99.90;;;;;;5094185;27;20047;-68
2022/05/22 01:39:11;;;;;;;14.60;3.78;;;8.50;99.90;;;;;;5094922;27;20143;-63
2022/05/22 01:41:37;;;;;;;12.52;3.45;;;8.60;99.90;;;;;;5110532;27;20427;-62
2022/05/22 01:44:03;;;;;;;11.27;3.58;;;8.70;99.90;;;;;;5094427;27;20040;-66
2022/05/22 01:46:29;;;;;;;8.65;2.67;;;8.70;99.90;;;;;;5110967;27;20047;-66
2022/05/22 01:48:56;;;;;;;6.50;2.83;;;8.70;99.90;;;;;;5129323;27;20400;-65
2022/05/22 01:51:22;;;;;;;17.05;3.78;;;8.70;99.90;;;;;;5125262;27;20519;-65
2022/05/22 01:53:48;;;;;;;15.65;3.60;;;8.60;99.90;;;;;;5132837;27;20474;-63
2022/05/22 01:56:13;;;;;;;11.85;2.83;;;8.60;99.90;;;;;;5132548;27;20976;-60
2022/05/22 01:58:39;;;;;;;11.82;3.38;;;8.60;99.90;;;;;;5132698;27;20058;-66
2022/05/22 02:01:08;;;;;;;14.18;3.67;;;8.50;99.90;;;;;;5122556;27;20454;-60
2022/05/22 02:03:34;;;;;;;17.13;3.50;;;8.50;99.90;;;;;;5092968;27;20058;-66
2022/05/22 02:05:59;;;;;;;7.20;2.67;;;8.50;99.90;;;;;;5133748;27;20045;-63
2022/05/22 02:08:26;;;;;;;9.18;2.42;;;8.50;99.90;;;;;;5118470;27;20456;-67
2022/05/22 02:11:05;;;;;;;9.38;2.72;;;8.40;99.90;;;;;;5131276;27;20062;-65
2022/05/22 02:13:34;;;;;;;14.23;3.10;;;8.40;99.90;;;;;;5114415;27;20442;-62
2022/05/22 02:16:00;;;;;;;16.27;3.10;;;8.30;99.90;;;;;;5110760;27;20047;-63
2022/05/22 02:18:25;;;;;;;8.70;2.95;;;8.30;99.90;;;;;;5099164;27;20045;-66
2022/05/22 02:20:51;;;;;;;15.65;3.78;;;8.30;99.90;;;;;;5130435;27;20054;-61
2022/05/22 02:23:18;;;;;;;11.90;3.20;;;8.20;99.90;;;;;;5132215;27;20428;-60
2022/05/22 02:25:48;;;;;;;10.40;3.70;;;8.30;99.90;;;;;;5129327;27;20445;-60
2022/05/22 02:28:17;;;;;;;;;;;8.30;99.90;;;;;;5098561;27;20050;-66
2022/05/22 02:30:46;;;;;;;10.82;3.65;;;8.30;99.90;;;;;;5102340;27;19930;-61
2022/05/22 02:33:18;;;;;;;15.77;3.75;;;8.40;99.90;;;;;;5111574;27;20043;-60
2022/05/22 02:35:44;;;;;;;20.40;4.22;;;8.40;99.90;;;;;;5094642;27;20046;-63
2022/05/22 02:38:11;;;;;;;12.15;4.72;;;8.40;99.90;;;;;;5110235;27;20047;-70
2022/05/22 02:40:38;;;;;;;9.32;3.65;;;8.40;99.90;;;;;;5094435;27;20103;-61
2022/05/22 02:43:05;;;;;;;14.88;4.43;;;8.40;99.90;;;;;;5091889;27;20088;-64
2022/05/22 02:45:33;;;;;;;13.75;4.10;;;8.40;99.90;;;;;;5109946;27;20059;-67
2022/05/22 02:47:58;;;;;;;15.90;3.90;;;8.40;99.90;;;;;;5108398;27;20485;-65
2022/05/22 02:50:27;;;;;;;14.85;4.75;;;8.50;99.90;;;;;;5091862;27;20063;-65
2022/05/22 02:52:53;;;;;;;10.52;3.30;;;8.50;99.90;;;;;;5112249;27;20061;-64
2022/05/22 02:55:20;;;;;;;11.10;3.17;;;8.40;99.90;;;;;;5092768;27;20047;-67
2022/05/22 02:57:46;;;;;;;13.02;4.43;;;8.40;99.90;;;;;;5093110;27;20082;-65
2022/05/22 03:00:19;;;;;;;13.70;4.22;;;8.40;99.90;;;;;;5092203;27;20170;-64
2022/05/22 03:02:45;;;;;;;15.50;4.60;;;8.30;99.90;;;;;;5111011;27;20051;-66
2022/05/22 03:05:12;;;;;;;16.45;3.80;;;8.40;99.90;;;;;;5110065;27;20378;-60
2022/05/22 03:07:38;;;;;;;11.77;3.78;;;8.30;99.90;;;;;;5109722;27;20980;-66
2022/05/22 03:10:10;;;;;;;10.82;4.00;;;8.30;99.90;;;;;;5108867;27;20051;-61
2022/05/22 03:12:36;;;;;;;9.93;3.95;;;8.30;99.90;;;;;;5109998;27;20051;-60
2022/05/22 03:15:04;;;;;;;12.15;4.05;;;8.30;99.90;;;;;;5092776;27;20047;-70
2022/05/22 03:17:30;;;;;;;6.97;3.50;;;8.30;99.90;;;;;;5091027;27;20050;-69
2022/05/22 03:19:56;;;;;;;9.77;3.55;;;8.30;99.90;;;;;;5109844;27;20043;-60
2022/05/22 03:22:22;;;;;;;14.00;3.67;;;8.20;99.90;;;;;;5110355;27;20104;-63
2022/05/22 03:24:48;;;;;;;13.15;3.80;;;8.20;99.90;;;;;;5094082;27;20103;-65
2022/05/22 03:27:15;;;;;;;13.10;5.18;;;8.20;99.90;;;;;;5110104;27;20051;-60
2022/05/22 03:29:44;;;;;;;14.13;4.00;;;8.30;99.90;;;;;;5093161;27;20047;-60
2022/05/22 03:32:11;;;;;;;12.77;4.10;;;8.20;99.90;;;;;;5094461;27;20074;-62
2022/05/22 03:34:37;;;;;;;10.90;3.80;;;8.20;99.90;;;;;;5087919;27;20043;-60
2022/05/22 03:37:04;;;;;;;15.35;3.92;;;8.20;99.90;;;;;;5110987;27;20135;-67
2022/05/22 03:39:30;;;;;;;9.15;3.55;;;8.20;99.90;;;;;;5091478;27;20134;-67
2022/05/22 03:41:58;;;;;;;6.53;2.88;;;8.20;99.90;;;;;;5094061;27;20134;-66
2022/05/22 03:44:24;;;;;;;14.43;4.85;;;8.20;99.90;;;;;;5110808;27;20082;-61
2022/05/22 03:46:50;;;;;;;15.40;4.28;;;8.20;99.90;;;;;;5109605;27;20868;-62
2022/05/22 03:49:15;;;;;;;11.68;4.13;;;8.20;99.90;;;;;;5110664;27;20039;-63
2022/05/22 03:51:42;;;;;;;11.15;4.32;;;8.20;99.90;;;;;;5091557;27;20433;-66
2022/05/22 03:54:09;;;;;;;13.68;4.05;;;8.20;99.90;;;;;;5115125;27;20042;-63
2022/05/22 03:56:35;;;;;;;18.85;4.72;;;8.20;99.90;;;;;;5112066;27;20050;-62
2022/05/22 03:59:02;;;;;;;15.63;4.53;;;8.30;99.90;;;;;;5113507;27;20038;-60
2022/05/22 04:01:29;;;;;;;8.25;3.10;;;8.30;99.90;;;;;;5112056;27;20067;-61
2022/05/22 04:03:56;;;;;;;6.80;2.40;;;8.30;99.90;;;;;;5130688;27;20129;-62
2022/05/22 04:06:22;;;;;;;3.58;1.50;;;8.30;99.90;;;;;;5129732;27;20171;-65
2022/05/22 04:08:48;;;;;;;1.00;1.00;;;8.20;99.90;;;;;;5109755;27;20133;-67
2022/05/22 04:11:17;;;;;;;2.65;1.45;;;8.20;99.90;;;;;;5110286;27;20047;-66
2022/05/22 04:13:43;;;;;;;9.37;3.90;;;8.10;99.90;;;;;;5108156;27;20833;-62
2022/05/22 04:16:10;;;;;;;9.73;3.30;;;8.10;99.90;;;;;;5110434;27;20313;-64
2022/05/22 04:18:36;;;;;;;5.32;1.75;;;8.20;99.90;;;;;;5108130;27;20070;-64
2022/05/22 04:21:01;;;;;;;25.80;2.00;;;8.20;99.90;;;;;;5125689;27;20050;-66
2022/05/22 04:26:12;;;;;;;7.20;1.58;;;8.20;99.90;;;;;;5129636;27;20393;-63
2022/05/22 04:28:39;;;;;;;40.15;2.65;;;8.30;99.90;;;;;;5130415;27;20094;-69
2022/05/22 04:31:05;;;;;;;2.25;1.70;;;8.30;99.90;;;;;;5108990;27;20043;-62
2022/05/22 04:33:33;;;;;;;46.38;2.35;;;8.30;99.90;;;;;;5130156;27;20043;-67
2022/05/22 04:36:00;;;;;;;115.68;4.00;;;8.40;99.90;;;;;;5111838;27;20050;-61
2022/05/22 04:38:26;;;;;;;89.65;3.72;;;8.50;99.90;;;;;;5113582;27;20043;-64
2022/05/22 04:40:57;;;;;;;54.45;3.08;;;8.50;99.90;;;;;;5129485;27;20049;-60
2022/05/22 04:43:24;;;;;;;32.90;2.90;;;8.60;99.90;;;;;;5127733;27;20042;-67
2022/05/22 04:45:50;;;;;;;36.85;2.92;;;8.60;99.90;;;;;;5129939;27;20127;-69
2022/05/22 04:48:17;;;;;;;14.02;2.58;;;8.70;99.90;;;;;;5128619;27;20046;-63
2022/05/22 04:50:47;;;;;;;4.80;3.42;;;8.80;99.90;;;;;;5112475;27;20412;-66
2022/05/22 04:53:15;;;;;;;5.35;3.83;;;8.90;99.90;;;;;;5095609;28;20564;-64
2022/05/22 04:55:40;;;;;;;5.03;4.18;;;9.00;99.90;;;;;;5092597;28;20164;-60
2022/05/22 04:58:06;;;;;;;7.53;3.85;;;9.20;99.90;;;;;;5091991;28;20134;-64
2022/05/22 05:00:33;;;;;;;8.63;4.20;;;9.40;99.90;;;;;;5108814;28;20081;-62
2022/05/22 05:02:58;;;;;;;8.50;4.53;;;9.60;99.90;;;;;;5109816;28;20047;-62
2022/05/22 05:05:24;;;;;;;10.82;4.70;;;9.80;99.90;;;;;;5074371;28;20031;-64
2022/05/22 05:07:50;;;;;;;13.30;4.88;;;9.90;99.90;;;;;;5092183;28;20057;-60
2022/05/22 05:10:15;;;;;;;12.57;4.80;;;10.00;99.90;;;;;;5108047;28;20047;-62
2022/05/22 05:12:42;;;;;;;13.98;5.22;;;10.00;99.90;;;;;;5130617;27;20500;-64
2022/05/22 05:15:11;;;;;;;13.73;5.68;;;10.10;99.90;;;;;;5116317;27;20150;-61
2022/05/22 05:17:41;;;;;;;13.82;5.03;;;10.10;99.90;;;;;;5133430;27;20099;-70
2022/05/22 05:20:07;;;;;;;14.00;5.78;;;10.20;99.90;;;;;;5134023;27;20042;-60
2022/05/22 05:22:33;;;;;;;12.77;5.30;;;10.30;99.90;;;;;;5130736;27;20122;-65
2022/05/22 05:24:59;;;;;;;14.25;5.00;;;10.40;99.90;;;;;;5116522;27;20090;-67
2022/05/22 05:27:25;;;;;;;16.98;6.38;;;10.50;99.90;;;;;;5132188;27;20035;-60
2022/05/22 05:29:52;;;;;;;16.77;6.18;;;10.50;99.90;;;;;;5116662;27;20104;-64
2022/05/22 05:32:19;;;;;;;16.30;5.63;;;10.60;99.90;;;;;;5131525;27;20050;-62
2022/05/22 05:34:45;;;;;;;21.25;6.00;;;10.70;99.90;;;;;;5116232;27;20046;-61
2022/05/22 05:37:10;;;;;;;16.67;5.85;;;10.80;99.90;;;;;;5121098;27;20047;-61
2022/05/22 05:39:36;;;;;;;15.43;5.75;;;10.90;99.90;;;;;;5114656;27;20138;-64
2022/05/22 05:42:02;;;;;;;24.63;6.55;;;10.90;99.90;;;;;;5110785;27;20393;-67
2022/05/22 05:44:30;;;;;;;18.92;5.35;;;11.00;99.90;;;;;;5102868;27;20081;-66
2022/05/22 05:46:55;;;;;;;23.08;6.45;;;11.10;99.90;;;;;;5145909;27;20055;-63
2022/05/22 05:49:21;;;;;;;16.95;5.97;;;11.20;99.90;;;;;;5130926;27;20103;-66
2022/05/22 05:51:47;;;;;;;16.20;5.88;;;11.30;99.90;;;;;;5112917;27;20092;-69
2022/05/22 05:54:13;;;;;;;24.55;6.05;;;11.40;99.90;;;;;;5113678;27;20128;-59
2022/05/22 05:56:40;;;;;;;23.77;6.00;;;11.50;99.90;;;;;;5132427;27;20078;-61
2022/05/22 05:59:07;;;;;;;21.92;6.35;;;11.70;99.90;;;;;;5114318;27;20039;-61
2022/05/22 06:01:34;;;;;;;20.27;6.00;;;11.70;99.90;;;;;;5130314;27;20050;-67
2022/05/22 06:04:01;;;;;;;22.85;6.72;;;11.80;99.90;;;;;;5150746;27;20050;-63
2022/05/22 06:06:28;;;;;;;23.63;6.10;;;11.90;99.90;;;;;;5149708;27;20123;-62
2022/05/22 06:08:55;;;;;;;22.50;6.60;;;12.00;99.90;;;;;;5131898;27;20076;-64
2022/05/22 06:11:21;;;;;;;15.85;5.03;;;12.10;99.90;;;;;;5112523;27;20479;-62
2022/05/22 06:13:47;;;;;;;21.02;5.75;;;12.10;99.90;;;;;;5131740;27;20053;-70
2022/05/22 06:16:13;;;;;;;17.33;5.30;;;12.10;99.90;;;;;;5131009;27;20437;-60
2022/05/22 06:18:40;;;;;;;18.27;5.22;;;12.20;99.90;;;;;;5150187;27;20107;-64
2022/05/22 06:21:14;;;;;;;18.85;4.82;;;12.30;99.90;;;;;;5132845;27;20050;-62
2022/05/22 06:23:40;;;;;;;32.97;6.15;;;12.40;99.90;;;;;;5113554;27;20042;-61
2022/05/22 06:26:07;;;;;;;23.48;5.20;;;12.50;99.90;;;;;;5131016;27;20053;-62
2022/05/22 06:28:33;;;;;;;30.00;6.35;;;12.70;99.90;;;;;;5150321;27;20042;-61
2022/05/22 06:30:59;;;;;;;18.88;4.82;;;13.00;99.90;;;;;;5129780;27;20061;-70
2022/05/22 06:33:24;;;;;;;23.23;4.97;;;13.10;99.90;;;;;;5115047;27;20563;-67
2022/05/22 06:35:50;;;;;;;20.15;4.70;;;13.20;99.90;;;;;;5131310;27;20134;-65
2022/05/22 06:41:08;;;;;;;15.20;5.07;;;13.30;99.90;;;;;;5130274;27;20047;-63
2022/05/22 06:43:35;;;;;;;17.13;4.65;;;13.50;99.90;;;;;;5115796;27;20051;-72
2022/05/22 06:46:02;;;;;;;14.27;4.03;;;13.60;99.90;;;;;;5113874;27;20046;-64
2022/05/22 06:48:27;;;;;;;18.98;5.28;;;13.80;99.90;;;;;;5115064;27;20399;-65
2022/05/22 06:50:53;;;;;;;22.52;4.68;;;14.20;99.90;;;;;;5127308;27;20043;-61
2022/05/22 06:53:19;;;;;;;13.25;4.60;;;14.50;99.90;;;;;;5110214;27;20066;-71
2022/05/22 06:55:46;;;;;;;15.38;3.72;;;14.80;99.90;;;;;;5111562;27;20071;-72
2022/05/22 06:58:11;;;;;;;13.63;4.13;;;14.90;99.90;;;;;;5110110;27;20085;-68
2022/05/22 07:00:37;;;;;;;12.75;3.60;;;15.00;99.90;;;;;;5116688;27;20053;-62
2022/05/22 07:03:03;;;;;;;21.23;4.18;;;15.20;99.90;;;;;;5110938;27;20246;-70
2022/05/22 07:05:29;;;;;;;12.10;4.28;;;15.40;99.90;;;;;;5113798;27;20070;-64
2022/05/22 07:07:55;;;;;;;16.80;4.15;;;15.50;99.90;;;;;;5114025;27;20524;-63
2022/05/22 07:11:38;;;;;;;14.32;4.45;;;15.70;99.90;;;;;;5129892;27;20042;-62
2022/05/22 07:13:06;;;;;;;14.73;3.90;;;16.00;99.90;;;;;;5131089;27;20361;-65
2022/05/22 07:15:32;;;;;;;17.17;4.10;;;16.30;99.90;;;;;;5111577;27;20113;-66
2022/05/22 07:17:57;;;;;;;12.18;3.92;;;16.50;99.90;;;;;;5130493;27;20407;-65
2022/05/22 07:20:23;;;;;;;12.65;3.83;;;16.80;98.80;;;;;;5129550;27;20042;-62
2022/05/22 07:22:49;;;;;;;16.63;3.67;;;17.00;97.30;;;;;;5113479;27;20118;-62
2022/05/22 07:25:14;;;;;;;11.23;3.15;;;17.20;96.10;;;;;;5096090;27;20043;-70
2022/05/22 07:27:41;;;;;;;12.30;3.00;;;17.40;93.10;;;;;;5130514;27;20035;-66
2022/05/22 07:30:07;;;;;;;15.40;3.15;;;17.60;92.60;;;;;;5129203;27;20125;-64
2022/05/22 07:32:33;;;;;;;13.18;2.90;;;17.80;80.80;;;;;;5112278;27;20129;-62
2022/05/22 07:34:59;;;;;;;16.27;3.50;;;17.90;78.80;;;;;;5130178;27;20146;-63
2022/05/22 07:37:25;;;;;;;15.02;3.83;;;18.00;79.50;;;;;;5129131;27;20046;-63
2022/05/22 07:39:51;;;;;;;11.10;2.88;;;18.10;85.40;;;;;;5130344;27;20047;-65
2022/05/22 07:42:17;;;;;;;12.75;3.00;;;18.30;75.10;;;;;;5148328;27;20050;-60
2022/05/22 07:44:43;;;;;;;13.73;2.88;;;18.60;78.10;;;;;;5130446;27;20128;-65
2022/05/22 07:47:09;;;;;;;13.73;2.95;;;18.60;68.90;;;;;;5130754;27;20547;-62
2022/05/22 07:52:20;;;;;;;9.25;2.60;;;18.50;72.90;;;;;;5127557;27;20043;-65
2022/05/22 07:54:47;;;;;;;18.30;3.08;;;18.70;67.70;;;;;;5125974;27;20051;-65
2022/05/22 07:57:13;;;;;;;18.00;3.47;;;18.90;62.40;;;;;;5110405;27;20118;-62
2022/05/22 07:59:39;;;;;;;15.80;3.38;;;19.10;68.30;;;;;;5124549;27;20141;-60
2022/05/22 08:02:08;;;;;;;10.93;3.03;;;19.40;65.50;;;;;;5106803;27;20523;-60
2022/05/22 08:04:33;;;;;;;16.45;3.45;;;19.70;71.20;;;;;;5125833;27;20081;-63
2022/05/22 08:06:59;;;;;;;18.42;3.20;;;19.80;55.20;;;;;;5108087;27;20055;-64
2022/05/22 08:09:25;;;;;;;17.05;3.67;;;19.70;55.20;;;;;;5127231;27;20051;-67
2022/05/22 08:11:51;;;;;;;12.05;3.08;;;19.40;53.90;;;;;;5124132;27;20485;-71
2022/05/22 08:14:17;;;;;;;14.27;3.72;;;19.30;63.30;;;;;;5126439;27;20118;-62
2022/05/22 08:16:43;;;;;;;13.90;3.78;;;18.90;60.40;;;;;;5091087;27;20077;-62
2022/05/22 08:19:10;;;;;;;12.05;3.88;;;18.80;53.60;;;;;;5125981;27;20051;-67
2022/05/22 08:21:36;;;;;;;8.65;2.92;;;18.20;53.30;;;;;;5123691;27;20617;-65
2022/05/22 08:24:02;;;;;;;14.05;3.35;;;18.20;65.10;;;;;;5090549;27;20604;-67
2022/05/22 08:26:28;;;;;;;12.77;3.75;;;18.50;74.80;;;;;;5124053;27;20039;-62
2022/05/22 08:28:55;;;;;;;10.70;3.40;;;18.90;77.30;;;;;;5107532;27;20417;-70
2022/05/22 08:31:21;;;;;;;13.10;3.00;;;19.30;57.30;;;;;;5087668;27;20039;-63
2022/05/22 08:33:47;;;;;;;14.93;3.28;;;19.30;47.40;;;;;;5108090;27;20083;-67
2022/05/22 08:36:12;;;;;;;15.05;2.97;;;19.20;44.50;;;;;;5125069;27;20050;-68
2022/05/22 08:38:41;;;;;;;18.02;3.78;;;18.90;51.40;;;;;;5128020;27;20055;-61
2022/05/22 08:41:22;;;;;;;14.77;3.50;;;18.70;56.90;;;;;;5091556;28;20058;-71
2022/05/22 08:44:06;;;;;;;17.67;3.58;;;18.60;63.20;;;;;;5127152;27;20078;-69
2022/05/22 08:46:53;;;;;;;8.82;2.00;;;18.80;83.50;;;;;;5124282;27;20081;-69
2022/05/22 08:49:23;;;;;;;15.27;3.08;;;18.80;58.20;;;;;;5122955;27;20115;-62
2022/05/22 08:52:03;;;;;;;16.33;2.95;;;19.00;62.60;;;;;;5125607;27;20077;-63
2022/05/22 08:54:37;;;;;;;12.27;3.67;;;19.20;61.20;;;;;;5125018;28;20370;-61
2022/05/22 09:00:00;;;;;;;12.80;3.45;;;19.50;57.60;;;;;;5125108;28;20378;-60
2022/05/22 09:02:32;;;;;;;12.82;3.40;;;19.40;57.80;;;;;;5107122;28;20054;-65
2022/05/22 09:04:58;;;;;;;11.32;3.20;;;19.40;62.70;;;;;;5123428;28;20056;-64
2022/05/22 09:07:52;;;;;;;12.18;3.20;;;19.40;66.70;;;;;;5123917;28;20393;-60
2022/05/22 09:10:47;;;;;;;13.63;3.45;;;19.00;56.10;;;;;;5125606;28;20122;-62
2022/05/22 09:13:34;;;;;;;8.88;3.13;;;18.70;70.00;;;;;;5113554;28;20062;-69
2022/05/22 09:16:15;;;;;;;13.07;3.55;;;18.60;62.40;;;;;;5124303;28;20488;-61
2022/05/22 09:19:03;;;;;;;9.02;3.55;;;18.30;61.50;;;;;;5108489;28;20083;-61
2022/05/22 09:21:46;;;;;;;13.45;3.17;;;18.30;64.80;;;;;;5125040;28;20050;-62
2022/05/22 09:24:53;;;;;;;9.07;3.08;;;18.50;70.40;;;;;;5125544;28;20461;-61
2022/05/22 09:27:37;;;;;;;13.23;3.22;;;18.50;66.90;;;;;;5087283;28;20413;-63
2022/05/22 09:30:33;;;;;;;13.43;3.20;;;18.00;56.30;;;;;;5123192;28;20050;-65
2022/05/22 09:33:18;;;;;;;15.88;3.13;;;17.90;70.80;;;;;;5107512;28;20046;-68
2022/05/22 09:36:05;;;;;;;11.80;3.28;;;18.30;76.00;;;;;;5126822;28;20092;-65
2022/05/22 09:38:46;;;;;;;10.10;2.92;;;18.50;69.60;;;;;;5124020;28;20050;-67
2022/05/22 09:42:00;;;;;;;8.50;2.90;;;18.70;65.80;;;;;;5105030;28;20043;-62
2022/05/22 09:45:23;;;;;;;13.75;3.28;;;18.80;64.20;;;;;;5013196;28;20086;-62
2022/05/22 09:48:09;;;;;;;19.02;3.78;;;19.40;71.20;;;;;;4997327;28;20045;-64
2022/05/22 09:50:57;;;;;;;12.65;3.35;;;19.30;50.10;;;;;;5023463;28;20155;-62
2022/05/22 09:53:45;;;;;;;10.23;3.22;;;18.60;54.00;;;;;;5066311;28;20055;-64
2022/05/22 09:56:50;;;;;;;8.83;3.10;;;18.30;59.70;;;;;;5103609;28;20427;-60
2022/05/22 09:59:52;;;;;;;8.60;2.67;;;18.10;63.60;;;;;;5090128;28;20118;-63
2022/05/22 10:02:27;;;;;;;9.63;2.78;;;17.80;67.30;;;;;;5102972;28;20083;-65
2022/05/22 10:05:24;;;;;;;7.22;2.85;;;17.60;74.00;;;;;;5091238;28;20666;-60
2022/05/22 10:07:59;;;;;;;9.60;2.97;;;17.60;70.90;;;;;;5090564;28;20051;-66
2022/05/22 10:10:45;;;;;;;9.52;2.50;;;17.70;75.00;;;;;;5089557;28;20039;-68
2022/05/22 10:13:21;;;;;;;14.20;3.20;;;18.00;77.10;;;;;;5104296;28;20066;-67
2022/05/22 10:16:24;;;;;;;11.43;3.25;;;18.20;75.50;;;;;;5090558;28;20039;-73
2022/05/22 10:19:27;;;;;;;10.02;2.65;;;18.50;72.00;;;;;;5091139;28;20054;-66
2022/05/22 10:22:06;;;;;;;9.27;3.13;;;18.50;68.60;;;;;;5088324;28;20552;-60
2022/05/22 10:24:49;;;;;;;9.55;2.80;;;18.70;80.80;;;;;;5108457;28;20048;-63
2022/05/22 10:27:24;;;;;;;13.00;2.92;;;18.70;66.30;;;;;;5108432;28;20560;-64
2022/05/22 10:29:52;;;;;;;8.75;3.13;;;18.30;60.00;;;;;;5106952;28;20130;-65
2022/05/22 10:32:32;;;;;;;8.87;2.97;;;18.00;67.30;;;;;;5103620;28;20059;-72
2022/05/22 10:35:14;;;;;;;16.13;3.13;;;17.80;67.00;;;;;;5105282;28;20082;-70
2022/05/22 10:37:53;;;;;;;9.63;2.80;;;17.70;67.40;;;;;;5105303;28;20497;-66
2022/05/22 10:40:22;;;;;;;11.13;3.33;;;17.70;74.90;;;;;;5101860;28;20055;-68
2022/05/22 10:42:52;;;;;;;12.55;2.80;;;17.60;67.60;;;;;;5089136;28;20036;-65
2022/05/22 10:45:32;;;;;;;9.48;2.97;;;17.40;65.90;;;;;;5107305;28;20580;-72
2022/05/22 10:48:11;;;;;;;10.25;3.13;;;17.30;70.50;;;;;;5106347;28;20055;-72
2022/05/22 10:50:50;;;;;;;13.73;2.97;;;17.20;77.30;;;;;;5093406;27;20051;-69
2022/05/22 10:53:39;;;;;;;13.00;3.25;;;17.20;74.50;;;;;;5108872;27;20043;-61
2022/05/22 10:56:16;;;;;;;8.75;2.70;;;17.30;77.50;;;;;;5109688;27;20053;-72
2022/05/22 10:59:04;;;;;;;10.85;2.83;;;17.60;86.60;;;;;;5127771;27;20054;-68
2022/05/22 11:01:36;;;;;;;11.95;2.92;;;17.70;74.10;;;;;;5126624;27;20446;-64
2022/05/22 11:04:09;;;;;;;8.40;2.85;;;17.80;80.70;;;;;;5123875;27;20039;-64
2022/05/22 11:06:38;;;;;;;6.88;2.65;;;18.00;76.00;;;;;;5110451;27;20047;-69
2022/05/22 11:09:07;;;;;;;10.52;2.47;;;18.10;72.90;;;;;;5124987;27;20404;-69
2022/05/22 11:11:35;;;;;;;9.83;3.40;;;18.10;77.90;;;;;;5111769;27;20581;-62
2022/05/22 11:14:10;;;;;;;10.93;2.90;;;18.10;87.00;;;;;;5107226;27;20082;-61
2022/05/22 11:16:36;;;;;;;10.60;2.45;;;18.20;76.90;;;;;;5111322;27;20134;-62
2022/05/22 11:19:16;;;;;;;12.02;3.25;;;18.20;82.20;;;;;;5074217;28;20036;-64
2022/05/22 11:22:18;;;;;;;11.02;2.67;;;18.20;69.80;;;;;;5106052;28;20046;-61
2022/05/22 11:25:21;;;;;;;10.20;2.33;;;18.30;62.20;;;;;;5117237;27;20047;-61
2022/05/22 11:28:07;;;;;;;13.05;3.00;;;18.60;78.40;;;;;;5127924;27;20130;-67
2022/05/22 11:30:48;;;;;;;12.38;2.47;;;18.80;82.70;;;;;;5126140;27;20043;-63
2022/05/22 11:33:46;;;;;;;11.63;2.60;;;18.70;72.10;;;;;;5124376;27;20051;-63
2022/05/22 11:37:06;;;;;;;12.17;3.00;;;18.70;67.60;;;;;;5082394;27;20085;-63
2022/05/22 11:39:35;;;;;;;10.02;2.53;;;18.80;69.10;;;;;;5007041;28;20045;-62
2022/05/22 11:42:12;;;;;;;11.00;2.50;;;18.70;71.10;;;;;;5107206;27;20051;-62
2022/05/22 11:44:55;;;;;;;7.75;2.72;;;18.40;62.30;;;;;;5109094;27;20039;-60
2022/05/22 11:47:41;;;;;;;7.72;2.55;;;18.10;66.20;;;;;;5123844;27;20054;-63
2022/05/22 11:50:38;;;;;;;10.30;2.85;;;17.90;71.70;;;;;;5128558;27;20542;-64
2022/05/22 11:53:14;;;;;;;6.40;2.22;;;17.90;69.10;;;;;;5127285;27;20055;-60
2022/05/22 11:56:00;;;;;;;11.65;2.40;;;18.00;68.60;;;;;;5126409;27;20481;-61
2022/05/22 11:58:38;;;;;;;8.88;2.05;;;18.30;91.30;;;;;;5127419;27;20054;-68
2022/05/22 12:01:27;;;;;;;8.40;3.03;;;18.40;74.40;;;;;;5124155;27;20594;-66
2022/05/22 12:03:58;;;;;;;7.70;2.30;;;18.60;63.40;;;;;;5106376;28;20044;-68
2022/05/22 12:06:49;;;;;;;6.45;2.10;;;18.60;72.90;;;;;;5106639;28;20052;-61
2022/05/22 12:09:31;;;;;;;6.50;1.83;;;18.70;67.10;;;;;;5105043;28;20448;-69
2022/05/22 12:11:57;;;;;;;8.60;2.28;;;18.90;79.30;;;;;;5107370;28;20344;-70
2022/05/22 12:14:34;;;;;;;10.93;2.55;;;18.90;62.50;;;;;;5108920;27;20496;-60
2022/05/22 12:17:26;;;;;;;13.45;2.85;;;18.90;74.70;;;;;;5126414;27;20047;-63
2022/05/22 12:19:51;;;;;;;8.52;2.25;;;18.70;64.70;;;;;;5125397;27;20540;-67
2022/05/22 12:22:19;;;;;;;6.20;2.47;;;18.70;63.20;;;;;;5120374;27;20042;-65
2022/05/22 12:24:59;;;;;;;7.00;1.88;;;18.60;58.70;;;;;;5106457;27;20040;-69
2022/05/22 12:27:31;;;;;;;8.18;2.20;;;18.60;68.20;;;;;;5122282;27;20087;-65
2022/05/22 12:30:13;;;;;;;10.65;2.25;;;18.60;68.40;;;;;;5086721;28;20467;-61
2022/05/22 12:33:00;;;;;;;10.75;2.38;;;18.60;63.50;;;;;;5120225;27;20047;-72
2022/05/22 12:35:26;;;;;;;7.63;1.92;;;18.80;75.30;;;;;;5124396;27;20156;-61
2022/05/22 12:38:00;;;;;;;4.93;1.77;;;18.90;72.90;;;;;;5125331;27;20503;-67
2022/05/22 12:40:46;;;;;;;9.40;2.10;;;18.90;68.70;;;;;;5126132;27;20079;-60
2022/05/22 12:43:18;;;;;;;7.47;2.13;;;18.70;57.40;;;;;;5108264;28;20121;-69
2022/05/22 12:45:50;;;;;;;8.88;2.60;;;18.80;76.80;;;;;;5109772;27;20505;-64
2022/05/22 12:48:35;;;;;;;6.47;2.05;;;18.90;64.90;;;;;;5124283;27;20417;-63
2022/05/22 12:51:14;;;;;;;7.35;2.42;;;18.80;60.00;;;;;;5107224;28;20047;-69
2022/05/22 12:53:49;;;;;;;9.23;2.10;;;18.60;61.60;;;;;;5123764;28;20039;-73
2022/05/22 12:56:24;;;;;;;6.35;2.38;;;18.50;60.30;;;;;;5104663;28;20042;-72
2022/05/22 12:59:03;;;;;;;7.03;1.92;;;18.10;62.80;;;;;;5124681;28;20050;-64
2022/05/22 13:01:32;;;;;;;10.88;2.40;;;17.90;65.00;;;;;;5124143;28;20712;-63
2022/05/22 13:04:06;;;;;;;6.30;1.85;;;17.80;66.00;;;;;;5107891;28;20043;-60
2022/05/22 13:06:44;;;;;;;7.22;2.25;;;17.90;71.20;;;;;;5125829;28;20050;-63
2022/05/22 13:09:33;;;;;;;10.53;2.63;;;18.00;71.60;;;;;;5125639;28;20381;-61
2022/05/22 13:12:24;;;;;;;6.85;2.05;;;18.30;71.40;;;;;;5127070;28;20162;-62
2022/05/22 13:14:55;;;;;;;4.15;1.65;;;18.50;70.00;;;;;;5122707;28;20076;-60
2022/05/22 13:17:43;;;;;;;13.10;1.90;;;18.60;58.90;;;;;;5105240;28;20047;-69
2022/05/22 13:20:37;;;;;;;5.63;2.45;;;18.80;57.80;;;;;;5105985;28;20079;-64